sensor_id;sensor_type;location;lat;lon;timestamp;P1;durP1;ratioP1;P2;durP2;ratioP2
74100;SDS011;62462;52.530;21.682;2022-10-26T00:00:07;19.58;;;12.27;;
74100;SDS011;62462;52.530;21.682;2022-10-26T00:02:33;17.40;;;10.82;;
74100;SDS011;62462;52.530;21.682;2022-10-26T00:04:59;23.92;;;12.15;;
74100;SDS011;62462;52.530;21.682;2022-10-26T00:07:27;19.35;;;11.23;;
74100;SDS011;62462;52.530;21.682;2022-10-26T00:09:53;16.38;;;11.23;;
74100;SDS011;62462;52.530;21.682;2022-10-26T00:12:19;18.65;;;11.40;;
74100;SDS011;62462;52.530;21.682;2022-10-26T00:14:45;19.02;;;11.20;;
74100;SDS011;62462;52.530;21.682;2022-10-26T00:17:11;15.77;;;11.35;;
74100;SDS011;62462;52.530;21.682;2022-10-26T00:19:36;17.27;;;11.48;;
74100;SDS011;62462;52.530;21.682;2022-10-26T00:22:02;18.02;;;10.88;;
74100;SDS011;62462;52.530;21.682;2022-10-26T00:24:28;18.00;;;11.18;;
74100;SDS011;62462;52.530;21.682;2022-10-26T00:26:56;16.08;;;10.07;;
74100;SDS011;62462;52.530;21.682;2022-10-26T00:29:21;15.63;;;10.13;;
74100;SDS011;62462;52.530;21.682;2022-10-26T00:31:47;17.13;;;11.40;;
74100;SDS011;62462;52.530;21.682;2022-10-26T00:34:13;16.30;;;11.25;;
74100;SDS011;62462;52.530;21.682;2022-10-26T00:36:39;18.77;;;11.00;;
74100;SDS011;62462;52.530;21.682;2022-10-26T00:39:04;17.60;;;11.55;;
74100;SDS011;62462;52.530;21.682;2022-10-26T00:41:31;15.30;;;10.93;;
74100;SDS011;62462;52.530;21.682;2022-10-26T00:43:57;18.98;;;11.55;;
74100;SDS011;62462;52.530;21.682;2022-10-26T00:46:34;21.10;;;11.95;;
74100;SDS011;62462;52.530;21.682;2022-10-26T00:49:08;18.67;;;12.40;;
74100;SDS011;62462;52.530;21.682;2022-10-26T00:51:43;18.45;;;11.10;;
74100;SDS011;62462;52.530;21.682;2022-10-26T00:54:15;21.30;;;11.90;;
74100;SDS011;62462;52.530;21.682;2022-10-26T00:56:42;18.38;;;11.18;;
74100;SDS011;62462;52.530;21.682;2022-10-26T00:59:14;19.25;;;11.90;;
74100;SDS011;62462;52.530;21.682;2022-10-26T01:01:43;17.25;;;11.48;;
74100;SDS011;62462;52.530;21.682;2022-10-26T01:04:11;14.35;;;10.52;;
74100;SDS011;62462;52.530;21.682;2022-10-26T01:06:37;18.73;;;10.88;;
74100;SDS011;62462;52.530;21.682;2022-10-26T01:09:05;12.50;;;9.75;;
74100;SDS011;62462;52.530;21.682;2022-10-26T01:11:31;18.83;;;10.07;;
74100;SDS011;62462;52.530;21.682;2022-10-26T01:13:57;15.05;;;11.23;;
74100;SDS011;62462;52.530;21.682;2022-10-26T01:25:34;21.80;;;12.40;;
74100;SDS011;62462;52.530;21.682;2022-10-26T01:28:38;20.75;;;12.07;;
74100;SDS011;62462;52.530;21.682;2022-10-26T01:31:14;15.32;;;10.68;;
74100;SDS011;62462;52.530;21.682;2022-10-26T01:33:48;20.17;;;12.27;;
74100;SDS011;62462;52.530;21.682;2022-10-26T01:36:31;18.08;;;11.10;;
74100;SDS011;62462;52.530;21.682;2022-10-26T01:39:10;18.55;;;10.50;;
74100;SDS011;62462;52.530;21.682;2022-10-26T01:41:51;18.02;;;11.02;;
74100;SDS011;62462;52.530;21.682;2022-10-26T01:46:53;16.88;;;11.40;;
74100;SDS011;62462;52.530;21.682;2022-10-26T01:49:23;18.45;;;12.15;;
74100;SDS011;62462;52.530;21.682;2022-10-26T01:51:52;16.05;;;12.15;;
74100;SDS011;62462;52.530;21.682;2022-10-26T01:54:18;18.38;;;11.88;;
74100;SDS011;62462;52.530;21.682;2022-10-26T01:56:44;21.58;;;11.90;;
74100;SDS011;62462;52.530;21.682;2022-10-26T02:10:29;16.70;;;11.25;;
74100;SDS011;62462;52.530;21.682;2022-10-26T02:15:53;15.90;;;11.07;;
74100;SDS011;62462;52.530;21.682;2022-10-26T02:18:31;18.45;;;10.85;;
74100;SDS011;62462;52.530;21.682;2022-10-26T02:21:04;15.93;;;11.25;;
74100;SDS011;62462;52.530;21.682;2022-10-26T02:23:36;17.85;;;11.27;;
74100;SDS011;62462;52.530;21.682;2022-10-26T02:26:06;17.70;;;11.05;;
74100;SDS011;62462;52.530;21.682;2022-10-26T02:28:37;15.57;;;11.13;;
74100;SDS011;62462;52.530;21.682;2022-10-26T02:31:07;16.48;;;10.25;;
74100;SDS011;62462;52.530;21.682;2022-10-26T02:33:36;18.30;;;10.93;;
74100;SDS011;62462;52.530;21.682;2022-10-26T02:36:06;16.00;;;10.55;;
74100;SDS011;62462;52.530;21.682;2022-10-26T02:38:35;16.58;;;10.18;;
74100;SDS011;62462;52.530;21.682;2022-10-26T02:41:03;14.98;;;10.65;;
74100;SDS011;62462;52.530;21.682;2022-10-26T02:43:32;17.92;;;11.02;;
74100;SDS011;62462;52.530;21.682;2022-10-26T02:46:04;19.13;;;11.35;;
74100;SDS011;62462;52.530;21.682;2022-10-26T02:48:34;21.55;;;12.52;;
74100;SDS011;62462;52.530;21.682;2022-10-26T02:51:17;16.02;;;10.93;;
74100;SDS011;62462;52.530;21.682;2022-10-26T02:56:27;23.25;;;13.40;;
74100;SDS011;62462;52.530;21.682;2022-10-26T02:59:01;20.40;;;12.85;;
74100;SDS011;62462;52.530;21.682;2022-10-26T03:01:31;20.95;;;13.00;;
74100;SDS011;62462;52.530;21.682;2022-10-26T03:03:58;18.58;;;12.13;;
74100;SDS011;62462;52.530;21.682;2022-10-26T03:06:25;18.48;;;12.27;;
74100;SDS011;62462;52.530;21.682;2022-10-26T03:08:50;18.27;;;12.13;;
74100;SDS011;62462;52.530;21.682;2022-10-26T03:11:17;21.20;;;12.27;;
74100;SDS011;62462;52.530;21.682;2022-10-26T03:13:43;20.50;;;14.10;;
74100;SDS011;62462;52.530;21.682;2022-10-26T03:16:10;21.98;;;15.73;;
74100;SDS011;62462;52.530;21.682;2022-10-26T03:18:35;25.27;;;14.35;;
74100;SDS011;62462;52.530;21.682;2022-10-26T03:21:01;25.48;;;15.82;;
74100;SDS011;62462;52.530;21.682;2022-10-26T03:23:27;22.90;;;14.90;;
74100;SDS011;62462;52.530;21.682;2022-10-26T03:25:58;25.35;;;17.27;;
74100;SDS011;62462;52.530;21.682;2022-10-26T03:28:24;31.10;;;18.25;;
74100;SDS011;62462;52.530;21.682;2022-10-26T03:30:51;32.13;;;18.98;;
74100;SDS011;62462;52.530;21.682;2022-10-26T03:33:17;28.17;;;17.67;;
74100;SDS011;62462;52.530;21.682;2022-10-26T03:35:43;32.15;;;18.13;;
74100;SDS011;62462;52.530;21.682;2022-10-26T03:38:08;30.30;;;18.88;;
74100;SDS011;62462;52.530;21.682;2022-10-26T03:40:34;31.90;;;17.02;;
74100;SDS011;62462;52.530;21.682;2022-10-26T03:43:01;38.75;;;20.23;;
74100;SDS011;62462;52.530;21.682;2022-10-26T03:45:27;32.50;;;18.27;;
74100;SDS011;62462;52.530;21.682;2022-10-26T03:47:53;31.55;;;17.92;;
74100;SDS011;62462;52.530;21.682;2022-10-26T03:50:19;27.45;;;16.48;;
74100;SDS011;62462;52.530;21.682;2022-10-26T03:52:46;30.58;;;18.38;;
74100;SDS011;62462;52.530;21.682;2022-10-26T03:55:13;28.95;;;17.67;;
74100;SDS011;62462;52.530;21.682;2022-10-26T03:57:40;33.40;;;19.45;;
74100;SDS011;62462;52.530;21.682;2022-10-26T04:00:06;37.42;;;19.90;;
74100;SDS011;62462;52.530;21.682;2022-10-26T04:02:33;32.58;;;19.30;;
74100;SDS011;62462;52.530;21.682;2022-10-26T04:04:58;41.35;;;21.33;;
74100;SDS011;62462;52.530;21.682;2022-10-26T04:07:24;31.58;;;19.38;;
74100;SDS011;62462;52.530;21.682;2022-10-26T04:09:50;31.73;;;20.17;;
74100;SDS011;62462;52.530;21.682;2022-10-26T04:12:15;33.75;;;19.38;;
74100;SDS011;62462;52.530;21.682;2022-10-26T04:14:41;35.10;;;20.17;;
74100;SDS011;62462;52.530;21.682;2022-10-26T04:17:07;35.45;;;19.38;;
74100;SDS011;62462;52.530;21.682;2022-10-26T04:19:32;35.83;;;19.45;;
74100;SDS011;62462;52.530;21.682;2022-10-26T04:21:58;34.80;;;20.00;;
74100;SDS011;62462;52.530;21.682;2022-10-26T04:24:24;34.10;;;19.10;;
74100;SDS011;62462;52.530;21.682;2022-10-26T04:26:49;32.38;;;18.23;;
74100;SDS011;62462;52.530;21.682;2022-10-26T04:29:15;31.90;;;19.65;;
74100;SDS011;62462;52.530;21.682;2022-10-26T04:31:42;31.52;;;18.77;;
74100;SDS011;62462;52.530;21.682;2022-10-26T04:34:07;27.40;;;18.10;;
74100;SDS011;62462;52.530;21.682;2022-10-26T04:36:33;35.97;;;19.02;;
74100;SDS011;62462;52.530;21.682;2022-10-26T04:38:59;29.08;;;17.45;;
74100;SDS011;62462;52.530;21.682;2022-10-26T04:41:25;33.42;;;18.23;;
74100;SDS011;62462;52.530;21.682;2022-10-26T04:43:51;29.75;;;17.05;;
74100;SDS011;62462;52.530;21.682;2022-10-26T04:46:17;33.97;;;18.00;;
74100;SDS011;62462;52.530;21.682;2022-10-26T04:48:42;29.15;;;16.52;;
74100;SDS011;62462;52.530;21.682;2022-10-26T04:51:08;29.80;;;16.88;;
74100;SDS011;62462;52.530;21.682;2022-10-26T04:53:34;23.83;;;15.95;;
74100;SDS011;62462;52.530;21.682;2022-10-26T04:56:00;27.25;;;16.83;;
74100;SDS011;62462;52.530;21.682;2022-10-26T04:58:26;25.65;;;15.50;;
74100;SDS011;62462;52.530;21.682;2022-10-26T05:00:52;29.27;;;15.80;;
74100;SDS011;62462;52.530;21.682;2022-10-26T05:03:18;24.80;;;14.57;;
74100;SDS011;62462;52.530;21.682;2022-10-26T05:05:45;22.70;;;14.30;;
74100;SDS011;62462;52.530;21.682;2022-10-26T05:08:14;22.00;;;13.90;;
74100;SDS011;62462;52.530;21.682;2022-10-26T05:10:40;21.15;;;13.73;;
74100;SDS011;62462;52.530;21.682;2022-10-26T05:13:07;22.35;;;13.95;;
74100;SDS011;62462;52.530;21.682;2022-10-26T05:15:33;19.67;;;13.40;;
74100;SDS011;62462;52.530;21.682;2022-10-26T05:18:04;23.52;;;13.57;;
74100;SDS011;62462;52.530;21.682;2022-10-26T05:20:31;19.60;;;13.23;;
74100;SDS011;62462;52.530;21.682;2022-10-26T05:22:58;21.33;;;13.68;;
74100;SDS011;62462;52.530;21.682;2022-10-26T05:25:26;24.75;;;13.75;;
74100;SDS011;62462;52.530;21.682;2022-10-26T05:27:59;20.27;;;13.70;;
74100;SDS011;62462;52.530;21.682;2022-10-26T05:30:27;23.48;;;12.65;;
74100;SDS011;62462;52.530;21.682;2022-10-26T05:32:53;20.85;;;13.13;;
74100;SDS011;62462;52.530;21.682;2022-10-26T05:35:23;26.67;;;14.43;;
74100;SDS011;62462;52.530;21.682;2022-10-26T05:37:50;24.15;;;12.95;;
74100;SDS011;62462;52.530;21.682;2022-10-26T05:40:17;25.00;;;13.60;;
74100;SDS011;62462;52.530;21.682;2022-10-26T05:42:43;25.20;;;14.05;;
74100;SDS011;62462;52.530;21.682;2022-10-26T05:45:09;21.42;;;12.93;;
74100;SDS011;62462;52.530;21.682;2022-10-26T05:47:37;20.88;;;12.40;;
74100;SDS011;62462;52.530;21.682;2022-10-26T05:50:04;23.35;;;14.45;;
74100;SDS011;62462;52.530;21.682;2022-10-26T05:52:30;25.35;;;15.75;;
74100;SDS011;62462;52.530;21.682;2022-10-26T05:55:15;21.58;;;12.75;;
74100;SDS011;62462;52.530;21.682;2022-10-26T05:57:42;26.88;;;16.13;;
74100;SDS011;62462;52.530;21.682;2022-10-26T06:00:09;19.45;;;12.38;;
74100;SDS011;62462;52.530;21.682;2022-10-26T06:05:32;21.10;;;13.85;;
74100;SDS011;62462;52.530;21.682;2022-10-26T06:08:20;21.80;;;13.98;;
74100;SDS011;62462;52.530;21.682;2022-10-26T06:10:47;18.73;;;12.40;;
74100;SDS011;62462;52.530;21.682;2022-10-26T06:13:13;26.00;;;13.95;;
74100;SDS011;62462;52.530;21.682;2022-10-26T06:15:43;22.73;;;12.23;;
74100;SDS011;62462;52.530;21.682;2022-10-26T06:18:24;16.00;;;10.13;;
74100;SDS011;62462;52.530;21.682;2022-10-26T06:29:42;18.85;;;11.10;;
74100;SDS011;62462;52.530;21.682;2022-10-26T06:32:22;19.27;;;10.88;;
74100;SDS011;62462;52.530;21.682;2022-10-26T06:34:53;17.40;;;10.55;;
74100;SDS011;62462;52.530;21.682;2022-10-26T06:37:30;19.83;;;10.07;;
74100;SDS011;62462;52.530;21.682;2022-10-26T06:39:58;16.98;;;11.20;;
74100;SDS011;62462;52.530;21.682;2022-10-26T06:42:24;21.13;;;10.98;;
74100;SDS011;62462;52.530;21.682;2022-10-26T06:44:50;17.73;;;9.68;;
74100;SDS011;62462;52.530;21.682;2022-10-26T06:52:43;21.13;;;10.82;;
74100;SDS011;62462;52.530;21.682;2022-10-26T06:55:29;21.88;;;11.30;;
74100;SDS011;62462;52.530;21.682;2022-10-26T06:58:04;19.02;;;11.02;;
74100;SDS011;62462;52.530;21.682;2022-10-26T07:00:35;25.88;;;11.55;;
74100;SDS011;62462;52.530;21.682;2022-10-26T07:03:03;19.63;;;11.07;;
74100;SDS011;62462;52.530;21.682;2022-10-26T07:05:29;19.40;;;10.00;;
74100;SDS011;62462;52.530;21.682;2022-10-26T07:07:54;19.58;;;11.00;;
74100;SDS011;62462;52.530;21.682;2022-10-26T07:10:20;16.50;;;10.18;;
74100;SDS011;62462;52.530;21.682;2022-10-26T07:12:46;16.95;;;10.88;;
74100;SDS011;62462;52.530;21.682;2022-10-26T07:15:12;18.88;;;10.52;;
74100;SDS011;62462;52.530;21.682;2022-10-26T07:17:41;18.58;;;9.55;;
74100;SDS011;62462;52.530;21.682;2022-10-26T07:20:12;15.35;;;9.85;;
74100;SDS011;62462;52.530;21.682;2022-10-26T07:22:39;21.10;;;10.05;;
74100;SDS011;62462;52.530;21.682;2022-10-26T07:25:06;17.35;;;11.40;;
74100;SDS011;62462;52.530;21.682;2022-10-26T07:27:33;18.42;;;10.60;;
74100;SDS011;62462;52.530;21.682;2022-10-26T07:29:59;16.20;;;9.75;;
74100;SDS011;62462;52.530;21.682;2022-10-26T07:32:25;18.85;;;9.93;;
74100;SDS011;62462;52.530;21.682;2022-10-26T07:34:51;15.73;;;10.13;;
74100;SDS011;62462;52.530;21.682;2022-10-26T07:37:16;20.10;;;10.57;;
74100;SDS011;62462;52.530;21.682;2022-10-26T07:39:42;19.75;;;10.13;;
74100;SDS011;62462;52.530;21.682;2022-10-26T07:42:08;16.73;;;10.48;;
74100;SDS011;62462;52.530;21.682;2022-10-26T07:44:33;17.40;;;10.00;;
74100;SDS011;62462;52.530;21.682;2022-10-26T07:46:59;16.95;;;10.65;;
74100;SDS011;62462;52.530;21.682;2022-10-26T07:49:25;16.83;;;10.45;;
74100;SDS011;62462;52.530;21.682;2022-10-26T07:51:51;16.17;;;8.95;;
74100;SDS011;62462;52.530;21.682;2022-10-26T07:54:16;14.70;;;9.60;;
74100;SDS011;62462;52.530;21.682;2022-10-26T07:56:43;16.95;;;10.63;;
74100;SDS011;62462;52.530;21.682;2022-10-26T07:59:12;16.80;;;10.13;;
74100;SDS011;62462;52.530;21.682;2022-10-26T08:01:38;19.20;;;10.98;;
74100;SDS011;62462;52.530;21.682;2022-10-26T08:04:03;13.38;;;8.82;;
74100;SDS011;62462;52.530;21.682;2022-10-26T08:06:29;17.75;;;10.43;;
74100;SDS011;62462;52.530;21.682;2022-10-26T08:08:55;14.48;;;9.70;;
74100;SDS011;62462;52.530;21.682;2022-10-26T08:11:20;15.93;;;9.25;;
74100;SDS011;62462;52.530;21.682;2022-10-26T08:13:46;16.55;;;9.98;;
74100;SDS011;62462;52.530;21.682;2022-10-26T08:16:12;12.65;;;8.40;;
74100;SDS011;62462;52.530;21.682;2022-10-26T08:18:38;17.83;;;9.27;;
74100;SDS011;62462;52.530;21.682;2022-10-26T08:21:05;15.32;;;9.35;;
74100;SDS011;62462;52.530;21.682;2022-10-26T08:23:32;16.75;;;8.88;;
74100;SDS011;62462;52.530;21.682;2022-10-26T08:26:01;13.55;;;8.50;;
74100;SDS011;62462;52.530;21.682;2022-10-26T08:28:28;18.75;;;9.43;;
74100;SDS011;62462;52.530;21.682;2022-10-26T08:30:54;13.43;;;8.77;;
74100;SDS011;62462;52.530;21.682;2022-10-26T08:33:20;16.50;;;9.20;;
74100;SDS011;62462;52.530;21.682;2022-10-26T08:35:46;15.80;;;9.50;;
74100;SDS011;62462;52.530;21.682;2022-10-26T08:38:12;16.90;;;9.52;;
74100;SDS011;62462;52.530;21.682;2022-10-26T08:40:39;16.27;;;9.40;;
74100;SDS011;62462;52.530;21.682;2022-10-26T08:43:15;15.00;;;9.27;;
74100;SDS011;62462;52.530;21.682;2022-10-26T08:45:44;19.85;;;8.98;;
74100;SDS011;62462;52.530;21.682;2022-10-26T08:48:19;11.70;;;7.95;;
74100;SDS011;62462;52.530;21.682;2022-10-26T08:56:20;16.52;;;9.45;;
74100;SDS011;62462;52.530;21.682;2022-10-26T08:58:54;15.40;;;9.25;;
74100;SDS011;62462;52.530;21.682;2022-10-26T09:01:25;15.88;;;9.23;;
74100;SDS011;62462;52.530;21.682;2022-10-26T09:03:51;17.08;;;9.00;;
74100;SDS011;62462;52.530;21.682;2022-10-26T09:09:01;15.35;;;9.68;;
74100;SDS011;62462;52.530;21.682;2022-10-26T09:14:16;15.52;;;9.48;;
74100;SDS011;62462;52.530;21.682;2022-10-26T09:17:11;19.73;;;9.15;;
74100;SDS011;62462;52.530;21.682;2022-10-26T09:25:18;19.13;;;10.13;;
74100;SDS011;62462;52.530;21.682;2022-10-26T09:27:46;18.42;;;10.13;;
74100;SDS011;62462;52.530;21.682;2022-10-26T09:30:20;16.50;;;10.15;;
74100;SDS011;62462;52.530;21.682;2022-10-26T09:32:47;16.95;;;10.48;;
74100;SDS011;62462;52.530;21.682;2022-10-26T09:35:23;18.70;;;10.30;;
74100;SDS011;62462;52.530;21.682;2022-10-26T09:37:53;20.70;;;10.80;;
74100;SDS011;62462;52.530;21.682;2022-10-26T09:40:33;20.92;;;10.85;;
74100;SDS011;62462;52.530;21.682;2022-10-26T09:43:11;19.60;;;11.50;;
74100;SDS011;62462;52.530;21.682;2022-10-26T09:45:45;15.82;;;11.02;;
74100;SDS011;62462;52.530;21.682;2022-10-26T09:50:52;18.75;;;11.13;;
74100;SDS011;62462;52.530;21.682;2022-10-26T09:53:17;15.35;;;10.43;;
74100;SDS011;62462;52.530;21.682;2022-10-26T09:55:44;16.13;;;11.20;;
